Time;durP1;ratioP1;P1;durP2;ratioP2;P2;SDS_P1;SDS_P2;PMS_P1;PMS_P2;Temp;Humidity;BMP_temperature;BMP_pressure;BME280_temperature;BME280_humidity;BME280_pressure;Samples;Min_cycle;Max_cycle;Signal;HPM_P1;HPM_P2
2022/07/24 00:00:05;;;;;;;14.95;10.57;;;;;;;21.06;100.00;99136.19;5091286;28;20048;-53
2022/07/24 00:02:31;;;;;;;19.17;10.27;;;;;;;21.10;100.00;99124.94;5091354;28;20070;-50
2022/07/24 00:04:58;;;;;;;16.77;13.38;;;;;;;21.07;100.00;99142.53;5091360;28;20054;-51
2022/07/24 00:07:24;;;;;;;18.25;11.32;;;;;;;21.06;100.00;99138.16;5091636;28;20101;-51
2022/07/24 00:09:50;;;;;;;20.23;10.00;;;;;;;21.18;100.00;99142.28;5091089;28;20097;-52
2022/07/24 00:12:17;;;;;;;14.82;10.23;;;;;;;21.19;100.00;99147.41;5091406;28;20148;-51
2022/07/24 00:14:43;;;;;;;18.65;13.50;;;;;;;21.20;100.00;99143.41;5091301;28;20403;-50
2022/07/24 00:17:10;;;;;;;14.70;10.43;;;;;;;21.24;100.00;99146.88;5091248;28;20044;-54
2022/07/24 00:19:36;;;;;;;18.50;10.35;;;;;;;21.29;100.00;99140.78;5091189;28;20139;-50
2022/07/24 00:22:02;;;;;;;14.57;12.98;;;;;;;21.29;100.00;99145.56;5091103;28;20056;-51
2022/07/24 00:24:29;;;;;;;18.65;10.98;;;;;;;21.35;100.00;99141.03;5091227;28;20052;-51
2022/07/24 00:26:55;;;;;;;14.85;12.85;;;;;;;21.22;100.00;99154.09;5091317;28;20056;-53
2022/07/24 00:29:21;;;;;;;14.93;10.43;;;;;;;21.37;100.00;99144.19;5091255;28;20044;-51
2022/07/24 00:31:49;;;;;;;16.63;10.85;;;;;;;21.40;100.00;99156.47;5091076;28;20052;-53
2022/07/24 00:34:15;;;;;;;14.90;10.65;;;;;;;21.29;100.00;99139.97;5091005;28;20083;-53
2022/07/24 00:36:43;;;;;;;15.95;10.73;;;;;;;21.42;100.00;99142.88;5090796;28;20048;-53
2022/07/24 00:39:09;;;;;;;15.82;12.93;;;;;;;21.43;100.00;99147.25;5091407;28;20570;-51
2022/07/24 00:41:35;;;;;;;15.75;10.38;;;;;;;21.44;100.00;99148.78;5090759;28;20055;-51
2022/07/24 00:44:05;;;;;;;16.33;13.15;;;;;;;21.34;100.00;99143.06;5090808;28;20062;-50
2022/07/24 00:46:32;;;;;;;16.55;10.70;;;;;;;21.20;100.00;99134.25;5090911;28;20058;-52
2022/07/24 00:48:59;;;;;;;18.92;11.05;;;;;;;21.31;100.00;99118.03;5090959;28;20052;-55
2022/07/24 00:51:26;;;;;;;19.15;14.10;;;;;;;21.38;100.00;99126.22;5090693;28;20084;-50
2022/07/24 00:53:52;;;;;;;15.55;10.43;;;;;;;21.40;100.00;99139.75;5090791;28;20201;-50
2022/07/24 00:56:19;;;;;;;14.90;12.95;;;;;;;21.41;100.00;99146.88;5090870;28;20113;-51
2022/07/24 00:58:46;;;;;;;18.00;14.10;;;;;;;21.33;100.00;99149.06;5090979;28;20484;-51
2022/07/24 01:01:12;;;;;;;16.98;9.98;;;;;;;21.41;100.00;99147.66;5090649;28;20056;-50
2022/07/24 01:03:39;;;;;;;16.13;11.02;;;;;;;21.38;100.00;99143.75;5089347;28;20400;-52
2022/07/24 01:06:07;;;;;;;14.70;12.98;;;;;;;21.25;100.00;99122.56;5090606;28;20140;-54
2022/07/24 01:08:34;;;;;;;16.35;10.40;;;;;;;21.29;100.00;99143.56;5090538;28;20047;-57
2022/07/24 01:11:01;;;;;;;15.50;10.13;;;;;;;21.39;100.00;99144.50;5090648;28;20499;-54
2022/07/24 01:13:29;;;;;;;10.98;9.68;;;;;;;21.35;100.00;99150.19;5090414;28;20048;-53
2022/07/24 01:15:55;;;;;;;20.02;11.23;;;;;;;21.27;100.00;99154.38;5090464;28;20427;-52
2022/07/24 01:18:22;;;;;;;18.33;13.55;;;;;;;21.26;100.00;99152.81;5090536;28;20047;-51
2022/07/24 01:20:49;;;;;;;15.50;13.95;;;;;;;21.22;100.00;99142.94;5090306;28;20101;-53
2022/07/24 01:23:16;;;;;;;17.73;10.85;;;;;;;21.25;100.00;99147.66;5090563;28;20081;-52
2022/07/24 01:25:43;;;;;;;14.48;10.55;;;;;;;21.19;100.00;99133.44;5090275;28;20052;-50
2022/07/24 01:28:09;;;;;;;15.68;14.00;;;;;;;21.24;100.00;99126.59;5090285;28;20118;-52
2022/07/24 01:30:36;;;;;;;17.48;10.88;;;;;;;21.34;100.00;99136.66;5090182;28;20097;-51
2022/07/24 01:33:02;;;;;;;15.32;10.55;;;;;;;21.41;100.00;99142.09;5090245;28;20048;-51
2022/07/24 01:35:28;;;;;;;17.75;13.40;;;;;;;21.42;100.00;99142.88;5089987;28;20142;-53
2022/07/24 01:37:55;;;;;;;15.02;11.13;;;;;;;21.48;100.00;99141.88;5090054;28;20134;-52
2022/07/24 01:40:23;;;;;;;17.30;13.38;;;;;;;21.42;100.00;99142.88;5089759;28;20083;-51
2022/07/24 01:42:49;;;;;;;16.05;13.80;;;;;;;21.51;100.00;99132.66;5089940;28;20052;-54
2022/07/24 01:45:16;;;;;;;14.63;10.85;;;;;;;21.28;100.00;99139.19;5089907;28;20056;-52
2022/07/24 01:47:43;;;;;;;14.38;12.75;;;;;;;21.37;100.00;99121.88;5089813;28;20139;-53
2022/07/24 01:50:10;;;;;;;16.33;10.40;;;;;;;21.46;100.00;99129.59;5089612;28;20052;-50
2022/07/24 01:52:36;;;;;;;20.05;13.68;;;;;;;21.45;100.00;99126.03;5089598;28;20130;-50
2022/07/24 01:55:04;;;;;;;13.15;10.32;;;;;;;21.52;100.00;99145.34;5089579;28;20185;-52
2022/07/24 01:57:31;;;;;;;15.77;13.73;;;;;;;21.50;100.00;99149.84;5089574;28;20139;-51
2022/07/24 01:59:58;;;;;;;16.30;13.52;;;;;;;21.56;100.00;99162.03;5089563;28;20044;-52
2022/07/24 02:02:24;;;;;;;15.20;13.60;;;;;;;21.49;100.00;99151.03;5089494;28;20059;-50
2022/07/24 02:04:50;;;;;;;15.35;13.85;;;;;;;21.57;100.00;99152.44;5089746;28;20538;-50
2022/07/24 02:07:16;;;;;;;18.83;10.80;;;;;;;21.43;100.00;99148.03;5089735;28;20463;-51
2022/07/24 02:09:43;;;;;;;18.90;14.55;;;;;;;21.51;100.00;99131.88;5089454;28;20138;-50
2022/07/24 02:12:10;;;;;;;17.55;11.48;;;;;;;21.55;100.00;99115.81;5089391;28;20142;-51
2022/07/24 02:14:36;;;;;;;19.60;15.80;;;;;;;21.25;100.00;99117.78;5091568;28;20052;-51
2022/07/24 02:17:03;;;;;;;25.05;14.57;;;;;;;21.24;100.00;99031.78;5092883;28;20081;-53
2022/07/24 02:19:29;;;;;;;24.38;18.83;;;;;;;21.40;100.00;99005.91;5092979;28;20067;-54
2022/07/24 02:21:56;;;;;;;20.52;17.55;;;;;;;21.31;100.00;98975.84;5093024;28;20131;-55
2022/07/24 02:24:22;;;;;;;26.45;21.27;;;;;;;21.05;100.00;98938.72;5092944;28;20495;-53
2022/07/24 02:26:49;;;;;;;33.10;18.95;;;;;;;21.25;100.00;98880.78;5092820;28;20079;-52
2022/07/24 02:29:16;;;;;;;30.38;19.25;;;;;;;21.00;100.00;98833.41;5092704;28;20044;-52
2022/07/24 02:31:42;;;;;;;29.13;26.13;;;;;;;21.17;100.00;98809.78;5092972;28;20044;-53
2022/07/24 02:34:10;;;;;;;28.25;18.23;;;;;;;21.08;100.00;98787.34;5092625;28;20127;-52
2022/07/24 02:36:36;;;;;;;27.90;22.35;;;;;;;20.97;100.00;98768.19;5092688;28;20052;-53
2022/07/24 02:39:03;;;;;;;25.70;15.27;;;;;;;20.94;100.00;98771.06;5092760;28;20063;-50
2022/07/24 02:41:29;;;;;;;25.45;16.05;;;;;;;20.71;100.00;98781.28;5092625;28;20086;-51
2022/07/24 02:43:56;;;;;;;26.05;19.88;;;;;;;20.78;100.00;98778.28;5092475;28;20482;-51
2022/07/24 02:46:23;;;;;;;21.17;12.75;;;;;;;20.68;100.00;98773.81;5092551;28;20499;-53
2022/07/24 02:48:49;;;;;;;19.23;12.45;;;;;;;20.57;100.00;98753.88;5092642;28;20048;-52
2022/07/24 02:51:15;;;;;;;18.20;15.43;;;;;;;20.47;100.00;98752.16;5092407;28;20143;-52
2022/07/24 02:53:42;;;;;;;16.83;11.57;;;;;;;20.55;100.00;98756.31;5092477;28;20044;-54
2022/07/24 02:56:08;;;;;;;18.83;12.65;;;;;;;20.50;100.00;98749.25;5092371;28;20048;-52
2022/07/24 02:58:35;;;;;;;18.20;11.68;;;;;;;20.41;100.00;98749.88;5092597;28;20487;-50
2022/07/24 03:01:01;;;;;;;22.48;12.02;;;;;;;20.31;100.00;98747.41;5092223;28;20595;-51
2022/07/24 03:03:28;;;;;;;16.63;13.95;;;;;;;20.25;100.00;98744.38;5092601;28;20148;-53
2022/07/24 03:05:54;;;;;;;17.63;10.68;;;;;;;20.32;100.00;98737.84;5092202;28;20480;-53
2022/07/24 03:08:21;;;;;;;14.43;10.27;;;;;;;20.19;100.00;98729.44;5092179;28;20055;-54
2022/07/24 03:10:47;;;;;;;24.02;11.98;;;;;;;20.27;100.00;98730.03;5092103;28;20056;-53
2022/07/24 03:13:13;;;;;;;16.63;12.20;;;;;;;20.32;100.00;98735.06;5092114;28;20056;-52
2022/07/24 03:15:40;;;;;;;18.70;13.32;;;;;;;20.44;100.00;98735.09;5092246;28;20193;-52
2022/07/24 03:18:06;;;;;;;16.55;12.10;;;;;;;20.40;100.00;98742.00;5092206;28;20127;-53
2022/07/24 03:20:33;;;;;;;18.15;12.63;;;;;;;20.26;100.00;98739.59;5091955;28;20056;-53
2022/07/24 03:22:59;;;;;;;18.60;12.07;;;;;;;20.33;100.00;98731.06;5092137;28;20499;-50
2022/07/24 03:25:26;;;;;;;21.05;11.18;;;;;;;20.45;100.00;98730.28;5091412;28;20052;-51
2022/07/24 03:27:52;;;;;;;15.32;13.73;;;;;;;20.07;100.00;98735.75;5092112;28;20334;-50
2022/07/24 03:30:19;;;;;;;10.25;8.60;;;;;;;20.20;100.00;98723.44;5092290;28;20083;-51
2022/07/24 03:32:46;;;;;;;13.35;8.98;;;;;;;20.15;100.00;98739.91;5092044;28;20473;-50
2022/07/24 03:35:12;;;;;;;11.68;6.97;;;;;;;20.09;100.00;98755.56;5092027;28;20056;-52
2022/07/24 03:37:39;;;;;;;11.68;7.85;;;;;;;20.08;100.00;98748.44;5091981;28;20055;-55
2022/07/24 03:40:07;;;;;;;10.57;6.88;;;;;;;20.27;100.00;98757.88;5091835;28;20051;-53
2022/07/24 03:42:33;;;;;;;9.32;7.10;;;;;;;20.17;100.00;98771.66;5092003;28;20487;-52
2022/07/24 03:44:59;;;;;;;12.38;10.52;;;;;;;20.26;100.00;98770.22;5092037;28;20056;-51
2022/07/24 03:47:26;;;;;;;13.80;8.07;;;;;;;20.10;100.00;98777.41;5091593;28;20048;-52
2022/07/24 03:49:52;;;;;;;11.02;8.07;;;;;;;20.14;100.00;98780.88;5091621;28;20530;-54
2022/07/24 03:52:19;;;;;;;12.23;7.60;;;;;;;20.04;100.00;98770.03;5091700;28;20143;-52
2022/07/24 03:54:46;;;;;;;12.07;7.53;;;;;;;20.18;100.00;98766.84;5091320;28;20044;-54
2022/07/24 03:57:12;;;;;;;11.68;8.50;;;;;;;20.15;100.00;98764.94;5091818;28;20055;-50
2022/07/24 03:59:38;;;;;;;12.48;10.95;;;;;;;20.24;100.00;98767.09;5091346;28;20134;-50
2022/07/24 04:02:05;;;;;;;12.38;8.63;;;;;;;20.23;100.00;98788.59;5091506;28;20489;-54
2022/07/24 04:04:31;;;;;;;10.95;8.45;;;;;;;20.28;100.00;98801.97;5091384;28;20058;-53
2022/07/24 04:06:57;;;;;;;11.23;8.75;;;;;;;20.44;100.00;98803.91;5091161;28;20055;-54
2022/07/24 04:09:23;;;;;;;12.15;8.68;;;;;;;20.49;100.00;98817.28;5091335;28;20498;-55
2022/07/24 04:11:53;;;;;;;11.25;9.07;;;;;;;20.34;100.00;98813.34;5091107;28;20056;-54
2022/07/24 04:14:19;;;;;;;14.63;9.88;;;;;;;20.47;100.00;98825.31;5091260;28;20056;-53
2022/07/24 04:16:46;;;;;;;12.73;9.77;;;;;;;20.53;100.00;98818.03;5091281;28;20048;-53
2022/07/24 04:19:13;;;;;;;15.27;10.10;;;;;;;20.52;100.00;98815.66;5091024;28;20059;-51
2022/07/24 04:21:40;;;;;;;12.30;10.93;;;;;;;20.50;100.00;98816.09;5091003;28;20142;-53
2022/07/24 04:24:07;;;;;;;14.40;11.77;;;;;;;20.37;100.00;98823.59;5091297;28;20429;-55
2022/07/24 04:26:33;;;;;;;17.65;11.45;;;;;;;20.20;100.00;98815.28;5090816;28;20495;-53
2022/07/24 04:29:00;;;;;;;16.77;11.45;;;;;;;20.13;100.00;98803.59;5091079;28;20056;-51
2022/07/24 04:31:26;;;;;;;15.75;14.18;;;;;;;20.01;100.00;98807.84;5091039;28;20178;-54
2022/07/24 04:33:52;;;;;;;12.75;10.15;;;;;;;19.92;100.00;98794.56;5090948;28;20054;-53
2022/07/24 04:36:19;;;;;;;15.80;9.88;;;;;;;20.12;100.00;98793.66;5090536;28;20048;-54
2022/07/24 04:38:45;;;;;;;13.18;9.38;;;;;;;19.90;100.00;98793.44;5090921;28;20408;-52
2022/07/24 04:41:11;;;;;;;13.82;12.10;;;;;;;20.02;100.00;98792.72;5090752;28;20151;-51
2022/07/24 04:43:38;;;;;;;13.05;9.15;;;;;;;19.99;100.00;98790.81;5090840;28;20044;-54
2022/07/24 04:46:05;;;;;;;15.52;10.32;;;;;;;20.27;100.00;98803.19;5090567;28;20139;-50
2022/07/24 04:48:32;;;;;;;13.10;9.75;;;;;;;20.09;100.00;98806.47;5090560;28;20535;-54
2022/07/24 04:50:58;;;;;;;15.50;9.95;;;;;;;20.20;100.00;98798.59;5090880;28;20138;-51
2022/07/24 04:53:24;;;;;;;12.82;9.10;;;;;;;20.20;100.00;98804.16;5090456;28;20055;-53
2022/07/24 04:55:51;;;;;;;12.93;9.73;;;;;;;20.16;100.00;98808.28;5090790;28;20499;-51
2022/07/24 04:58:17;;;;;;;14.25;9.85;;;;;;;20.10;100.00;98810.78;5090488;28;20080;-51
2022/07/24 05:00:43;;;;;;;13.52;11.95;;;;;;;19.70;100.00;98808.25;5090632;28;20060;-50
2022/07/24 05:03:10;;;;;;;10.73;8.48;;;;;;;19.84;100.00;98811.88;5090478;28;20441;-51
2022/07/24 05:05:37;;;;;;;13.02;8.98;;;;;;;19.91;100.00;98808.91;5090365;28;20044;-50
2022/07/24 05:08:03;;;;;;;15.68;8.65;;;;;;;19.79;100.00;98799.25;5090493;28;20530;-52
2022/07/24 05:10:30;;;;;;;13.57;7.93;;;;;;;19.88;100.00;98804.22;5090283;28;20130;-52
2022/07/24 05:12:56;;;;;;;15.57;8.00;;;;;;;19.98;100.00;98805.94;5090415;28;20442;-50
2022/07/24 05:15:22;;;;;;;13.23;8.27;;;;;;;19.98;100.00;98809.50;5090044;28;20084;-52
2022/07/24 05:17:48;;;;;;;13.60;8.57;;;;;;;20.00;100.00;98811.88;5090402;28;20446;-51
2022/07/24 05:20:16;;;;;;;15.43;8.02;;;;;;;19.89;100.00;98805.78;5089894;28;20097;-52
2022/07/24 05:22:42;;;;;;;12.85;8.45;;;;;;;19.97;100.00;98807.94;5090397;28;20545;-49
2022/07/24 05:25:09;;;;;;;14.82;11.20;;;;;;;19.97;100.00;98793.25;5089942;28;20052;-50
2022/07/24 05:27:35;;;;;;;11.07;7.07;;;;;;;19.68;100.00;98799.53;5090035;28;20056;-51
2022/07/24 05:30:02;;;;;;;12.45;6.80;;;;;;;19.66;100.00;98776.97;5090080;28;20052;-51
2022/07/24 05:32:28;;;;;;;13.15;6.60;;;;;;;19.77;100.00;98775.91;5090004;28;20147;-51
2022/07/24 05:34:55;;;;;;;10.63;6.45;;;;;;;19.74;100.00;98769.22;5090251;28;20221;-50
2022/07/24 05:37:22;;;;;;;9.70;6.53;;;;;;;19.79;100.00;98774.22;5090091;28;20052;-50
2022/07/24 05:39:48;;;;;;;10.60;6.35;;;;;;;19.78;100.00;98769.13;5090385;28;20087;-51
2022/07/24 05:42:14;;;;;;;11.98;6.72;;;;;;;19.85;100.00;98772.50;5089731;28;20515;-51
2022/07/24 05:44:40;;;;;;;9.65;5.95;;;;;;;19.54;100.00;98768.50;5090083;28;20143;-55
2022/07/24 05:47:07;;;;;;;9.30;5.88;;;;;;;19.93;100.00;98751.63;5089774;28;20059;-53
2022/07/24 05:49:33;;;;;;;10.65;5.10;;;;;;;19.69;100.00;98753.03;5094849;28;20048;-51
2022/07/24 05:52:02;;;;;;;11.05;4.65;;;;;;;19.86;100.00;98770.47;5096422;28;20044;-53
2022/07/24 05:54:29;;;;;;;6.88;5.57;;;;;;;20.05;100.00;98788.28;5096548;28;20052;-51
2022/07/24 05:56:55;;;;;;;6.18;4.40;;;;;;;19.87;100.00;98792.31;5096363;28;20054;-54
2022/07/24 05:59:21;;;;;;;8.60;4.50;;;;;;;19.72;100.00;98785.53;5096352;28;20091;-53
2022/07/24 06:01:47;;;;;;;6.57;4.80;;;;;;;20.03;100.00;98807.44;5096444;28;20055;-52
2022/07/24 06:04:14;;;;;;;8.02;5.00;;;;;;;20.06;100.00;98800.97;5096374;28;20047;-52
2022/07/24 06:06:40;;;;;;;5.75;4.72;;;;;;;20.15;100.00;98812.25;5096299;28;20422;-54
2022/07/24 06:09:06;;;;;;;4.72;4.03;;;;;;;20.32;100.00;98818.56;5096348;28;20090;-54
2022/07/24 06:11:33;;;;;;;9.85;6.55;;;;;;;20.36;100.00;98814.47;5096086;28;20083;-52
2022/07/24 06:14:00;;;;;;;7.25;4.55;;;;;;;20.44;100.00;98815.84;5096228;28;20052;-52
2022/07/24 06:16:26;;;;;;;6.22;4.43;;;;;;;20.39;100.00;98821.16;5096382;28;20128;-50
2022/07/24 06:18:53;;;;;;;8.70;4.95;;;;;;;20.59;100.00;98821.81;5096044;28;20590;-52
2022/07/24 06:21:19;;;;;;;6.95;5.15;;;;;;;20.71;100.00;98830.66;5096512;28;20626;-52
2022/07/24 06:23:45;;;;;;;5.28;3.72;;;;;;;20.42;100.00;98826.63;5095929;28;20052;-53
2022/07/24 06:26:11;;;;;;;6.72;6.03;;;;;;;20.71;100.00;98830.66;5096108;28;20544;-53
2022/07/24 06:28:38;;;;;;;6.97;6.15;;;;;;;20.55;100.00;98854.53;5096164;28;20047;-50
2022/07/24 06:31:05;;;;;;;5.72;4.35;;;;;;;20.70;100.00;98852.16;5096170;28;20087;-51
2022/07/24 06:33:31;;;;;;;6.50;4.57;;;;;;;20.85;100.00;98866.44;5095889;28;20048;-50
2022/07/24 06:35:57;;;;;;;5.97;5.05;;;;;;;20.90;100.00;98888.22;5095888;28;20132;-54
2022/07/24 06:38:24;;;;;;;6.07;4.38;;;;;;;20.94;100.00;98890.91;5095830;28;20130;-54
2022/07/24 06:40:50;;;;;;;8.32;5.88;;;;;;;21.07;100.00;98889.69;5095927;28;20135;-53
2022/07/24 06:43:16;;;;;;;8.77;5.72;;;;;;;20.88;100.00;98887.84;5095896;28;20062;-52
2022/07/24 06:45:44;;;;;;;7.45;4.90;;;;;;;20.96;100.00;98896.78;5095555;28;20485;-52
2022/07/24 06:48:10;;;;;;;7.63;5.35;;;;;;;20.92;100.00;98894.09;5096142;28;20048;-55
2022/07/24 06:50:36;;;;;;;13.77;6.50;;;;;;;20.93;100.00;98884.53;5095585;28;20094;-54
2022/07/24 06:53:03;;;;;;;7.85;7.07;;;;;;;20.84;100.00;98893.53;5095868;28;20059;-51
2022/07/24 06:55:29;;;;;;;8.45;7.55;;;;;;;20.81;100.00;98885.28;5095699;28;20182;-52
2022/07/24 06:57:55;;;;;;;9.13;5.93;;;;;;;20.79;100.00;98876.56;5095563;28;20063;-54
2022/07/24 07:00:22;;;;;;;8.27;6.20;;;;;;;20.89;100.00;98876.28;5093874;28;20055;-52
2022/07/24 07:02:50;;;;;;;9.60;8.60;;;;;;;20.95;100.00;98884.88;5092395;28;20555;-51
2022/07/24 07:05:16;;;;;;;7.38;6.20;;;;;;;21.17;100.00;98884.25;5092285;28;20044;-51
2022/07/24 07:07:43;;;;;;;8.77;5.65;;;;;;;21.31;100.00;98903.34;5092280;28;20565;-53
2022/07/24 07:10:10;;;;;;;8.70;7.38;;;;;;;21.43;100.00;98897.03;5092497;28;20043;-53
2022/07/24 07:12:36;;;;;;;7.25;6.53;;;;;;;21.50;100.00;98919.13;5091981;28;20087;-51
2022/07/24 07:15:03;;;;;;;7.95;6.78;;;;;;;21.51;100.00;98933.84;5092336;28;20465;-51
2022/07/24 07:17:30;;;;;;;7.05;4.53;;;;;;;21.56;100.00;98948.03;5092101;28;20094;-52
2022/07/24 07:19:57;;;;;;;6.80;5.93;;;;;;;21.74;100.00;98955.06;5092193;28;20048;-52
2022/07/24 07:22:23;;;;;;;8.25;7.35;;;;;;;21.88;100.00;98951.81;5092016;28;20066;-50
2022/07/24 07:24:50;;;;;;;7.85;5.55;;;;;;;21.82;100.00;98965.53;5091918;28;20423;-51
2022/07/24 07:27:16;;;;;;;6.90;5.60;;;;;;;21.55;100.00;98977.13;5092216;28;20470;-51
2022/07/24 07:29:42;;;;;;;9.15;4.63;;;;;;;21.57;100.00;98957.94;5092306;28;20159;-50
2022/07/24 07:32:09;;;;;;;3.85;3.40;;;;;;;21.51;100.00;98984.03;5092210;28;20055;-51
2022/07/24 07:34:35;;;;;;;5.95;5.05;;;;;;;21.69;100.00;98972.34;5091804;28;20083;-52
2022/07/24 07:37:02;;;;;;;5.25;4.82;;;;;;;21.68;100.00;98968.00;5092089;28;20105;-49
2022/07/24 07:39:28;;;;;;;4.18;3.78;;;;;;;21.64;100.00;98973.69;5091663;28;20043;-53
2022/07/24 07:41:54;;;;;;;5.50;5.00;;;;;;;21.85;100.00;98975.03;5091978;28;20059;-51
2022/07/24 07:44:20;;;;;;;5.32;4.82;;;;;;;21.81;100.00;98966.00;5091594;28;20052;-52
2022/07/24 07:46:47;;;;;;;6.13;4.78;;;;;;;21.89;100.00;98960.97;5092016;28;20554;-53
2022/07/24 07:49:14;;;;;;;6.32;4.57;;;;;;;21.85;100.00;98975.81;5091458;28;20059;-52
2022/07/24 07:51:40;;;;;;;4.57;3.53;;;;;;;22.04;100.00;99023.50;5091441;28;20098;-54
2022/07/24 07:54:07;;;;;;;5.30;4.90;;;;;;;22.09;100.00;99003.38;5091670;28;20101;-52
2022/07/24 07:56:33;;;;;;;4.10;3.80;;;;;;;22.02;100.00;98982.06;5091407;28;20055;-51
2022/07/24 07:58:59;;;;;;;4.78;4.22;;;;;;;21.96;100.00;98983.88;5091533;28;20083;-50
2022/07/24 08:01:26;;;;;;;7.70;4.00;;;;;;;22.13;100.00;99018.03;5091439;28;20078;-50
2022/07/24 08:03:52;;;;;;;4.00;3.63;;;;;;;22.38;100.00;99017.25;5091568;28;20068;-50
2022/07/24 08:06:18;;;;;;;8.05;5.22;;;;;;;22.49;100.00;99022.47;5091030;28;20178;-50
2022/07/24 08:08:46;;;;;;;6.15;4.65;;;;;;;22.50;100.00;99019.25;5091215;28;20499;-54
2022/07/24 08:11:13;;;;;;;5.55;4.30;;;;;;;22.40;100.00;99050.34;5090380;28;20147;-54
2022/07/24 08:13:39;;;;;;;4.88;4.47;;;;;;;22.41;100.00;99040.72;5091389;28;20134;-54
2022/07/24 08:16:06;;;;;;;5.03;4.63;;;;;;;22.35;100.00;99050.88;5091083;28;20534;-51
2022/07/24 08:18:32;;;;;;;6.20;4.35;;;;;;;22.34;100.00;99018.63;5091269;28;20411;-51
2022/07/24 08:20:59;;;;;;;4.65;4.22;;;;;;;22.46;100.00;99049.31;5091241;28;20139;-52
2022/07/24 08:23:25;;;;;;;4.22;3.92;;;;;;;22.38;100.00;99069.53;5090990;28;20175;-53
2022/07/24 08:25:51;;;;;;;4.65;3.88;;;;;;;22.48;100.00;99080.38;5091027;28;20135;-50
2022/07/24 08:28:18;;;;;;;4.35;4.03;;;;;;;22.65;100.00;99097.00;5090874;28;20052;-52
2022/07/24 08:30:45;;;;;;;5.43;3.53;;;;;;;22.91;100.00;99101.34;5091214;28;20514;-50
2022/07/24 08:33:11;;;;;;;4.57;4.15;;;;;;;22.67;100.00;99111.31;5090831;28;20048;-52
2022/07/24 08:35:37;;;;;;;3.72;3.42;;;;;;;22.66;100.00;99099.38;5091155;28;20434;-51
2022/07/24 08:38:05;;;;;;;3.95;3.40;;;;;;;22.38;100.00;99105.84;5090777;28;20138;-51
2022/07/24 08:40:35;;;;;;;5.82;4.30;;;;;;;22.05;100.00;99106.00;5090927;28;20105;-50
2022/07/24 08:43:01;;;;;;;5.40;4.40;;;;;;;22.38;100.00;99095.47;5090647;28;20056;-51
2022/07/24 08:45:29;;;;;;;8.80;3.80;;;;;;;22.30;100.00;99088.53;5090878;28;20181;-50
2022/07/24 08:47:56;;;;;;;5.55;3.88;;;;;;;22.32;100.00;99097.25;5090587;28;20052;-50
2022/07/24 08:50:22;;;;;;;5.20;4.80;;;;;;;22.49;100.00;99109.88;5090539;28;20530;-51
2022/07/24 08:52:49;;;;;;;4.35;3.95;;;;;;;22.19;100.00;99094.47;5090477;28;20058;-51
2022/07/24 08:55:17;;;;;;;5.57;5.15;;;;;;;23.06;100.00;99118.44;5090490;28;20048;-52
2022/07/24 08:57:43;;;;;;;5.60;3.97;;;;;;;23.28;100.00;99115.69;5090459;28;20044;-53
2022/07/24 09:00:11;;;;;;;6.00;5.40;;;;;;;23.31;100.00;99112.00;5090535;28;20534;-51
2022/07/24 09:02:38;;;;;;;7.13;4.63;;;;;;;23.51;100.00;99114.47;5090707;28;20104;-52
2022/07/24 09:05:05;;;;;;;5.35;4.95;;;;;;;23.39;100.00;99123.69;5090244;28;20063;-50
2022/07/24 09:07:31;;;;;;;6.50;5.43;;;;;;;23.47;100.00;99141.81;5090676;28;20526;-51
2022/07/24 09:10:00;;;;;;;5.85;4.85;;;;;;;23.35;100.00;99135.03;5090216;28;20071;-51
2022/07/24 09:12:30;;;;;;;5.25;4.53;;;;;;;23.23;100.00;99156.22;5090379;28;20048;-52
2022/07/24 09:14:57;;;;;;;6.22;5.63;;;;;;;23.09;100.00;99162.28;5090386;28;20048;-51
2022/07/24 09:17:23;;;;;;;7.00;4.85;;;;;;;22.75;100.00;99160.16;5090206;28;20199;-52
2022/07/24 09:19:51;;;;;;;6.13;5.63;;;;;;;22.84;100.00;99153.91;5090104;28;20048;-51
2022/07/24 09:22:32;;;;;;;6.88;6.18;;;;;;;22.82;100.00;99150.75;5090056;28;20466;-55
2022/07/24 09:25:13;;;;;;;4.82;4.10;;;;;;;22.93;100.00;99148.44;5089389;28;20055;-52
2022/07/24 09:27:45;;;;;;;6.07;5.57;;;;;;;23.04;100.00;99148.09;5090237;28;20556;-54
2022/07/24 09:30:22;;;;;;;7.70;6.30;;;;;;;23.60;100.00;99148.16;5090401;28;20083;-54
2022/07/24 09:32:52;;;;;;;5.88;5.43;;;;;;;23.75;100.00;99144.84;5089813;28;20070;-53
2022/07/24 09:35:23;;;;;;;5.38;4.82;;;;;;;23.87;100.00;99094.41;5089741;28;20043;-51
2022/07/24 09:37:54;;;;;;;7.07;6.47;;;;;;;23.80;100.00;99111.47;5090342;28;20048;-52
2022/07/24 09:40:21;;;;;;;6.10;5.60;;;;;;;23.69;100.00;99100.69;5089659;28;20056;-53
2022/07/24 09:42:48;;;;;;;5.78;5.10;;;;;;;23.67;100.00;99079.94;5089938;28;20527;-53
2022/07/24 09:45:14;;;;;;;6.50;5.90;;;;;;;23.87;100.00;99122.41;5089588;28;20582;-52
2022/07/24 09:47:41;;;;;;;5.50;5.00;;;;;;;23.95;100.00;99120.88;5089811;28;20052;-52
2022/07/24 09:50:13;;;;;;;5.20;4.75;;;;;;;24.05;100.00;99076.13;5089634;28;20050;-53
2022/07/24 09:52:41;;;;;;;6.40;5.20;;;;;;;24.15;100.00;99080.53;5089599;28;20096;-55
2022/07/24 09:55:20;;;;;;;6.72;5.70;;;;;;;24.22;100.00;99121.50;5089403;28;20044;-52
2022/07/24 09:57:46;;;;;;;5.70;5.20;;;;;;;23.97;100.00;99130.88;5089929;28;20109;-51
2022/07/24 10:00:14;;;;;;;5.57;5.05;;;;;;;24.09;100.00;99082.38;5090030;28;20739;-51
2022/07/24 10:02:44;;;;;;;7.05;5.35;;;;;;;24.30;100.00;99073.16;5089752;28;20168;-51
2022/07/24 10:05:13;;;;;;;6.32;5.10;;;;;;;24.30;100.00;99089.97;5089706;28;20052;-54
2022/07/24 10:07:41;;;;;;;5.28;4.78;;;;;;;24.32;100.00;99072.69;5089285;28;20462;-55
2022/07/24 10:10:09;;;;;;;4.55;4.15;;;;;;;24.54;100.00;98929.72;5089742;28;20048;-52
2022/07/24 10:12:35;;;;;;;5.28;4.78;;;;;;;25.24;100.00;98857.72;5089364;28;20434;-53
2022/07/24 10:15:02;;;;;;;4.13;3.75;;;;;;;25.50;100.00;98635.59;5089573;28;20511;-51
2022/07/24 10:17:46;;;;;;;4.28;3.88;;;;;;;25.83;100.00;98582.16;5089573;28;20059;-55
2022/07/24 10:20:23;;;;;;;;;;;;;;;25.68;100.00;98471.88;5089632;28;20427;-55
2022/07/24 10:23:04;;;;;;;3.90;3.70;;;;;;;25.52;100.00;98776.19;5089090;28;19924;-51
2022/07/24 10:25:47;;;;;;;4.72;4.32;;;;;;;25.64;100.00;98726.72;5089408;28;20099;-54
2022/07/24 10:28:18;;;;;;;6.80;3.90;;;;;;;25.48;100.00;98669.75;5089752;28;20048;-55
2022/07/24 10:30:45;;;;;;;4.32;3.92;;;;;;;25.25;100.00;98690.94;5089050;28;20087;-53
2022/07/24 10:33:11;;;;;;;4.35;4.05;;;;;;;24.86;100.00;98771.34;5089352;28;20147;-53
2022/07/24 10:35:39;;;;;;;4.53;4.13;;;;;;;24.77;100.00;98765.75;5091294;28;20048;-54
2022/07/24 10:38:15;;;;;;;4.80;4.40;;;;;;;24.58;100.00;98816.22;5092683;28;20083;-55
2022/07/24 10:40:46;;;;;;;5.00;4.40;;;;;;;24.07;100.00;98832.84;5092630;28;20064;-52
2022/07/24 10:43:15;;;;;;;5.18;4.68;;;;;;;24.09;100.00;98970.38;5092270;28;20070;-52
2022/07/24 10:45:43;;;;;;;5.25;4.85;;;;;;;23.92;100.00;98899.84;5092492;28;20135;-54
2022/07/24 10:48:26;;;;;;;5.18;4.78;;;;;;;23.83;100.00;98867.03;5092555;28;20412;-51
2022/07/24 10:51:07;;;;;;;4.43;3.77;;;;;;;23.53;100.00;98990.94;5092300;28;20056;-55
2022/07/24 10:53:49;;;;;;;5.07;4.68;;;;;;;23.43;100.00;98931.34;5092328;28;20318;-51
2022/07/24 10:56:18;;;;;;;4.70;4.25;;;;;;;23.11;100.00;98885.00;5092259;28;20101;-51
2022/07/24 10:59:00;;;;;;;5.00;4.40;;;;;;;23.28;100.00;99033.81;5092443;28;20138;-52
2022/07/24 11:01:29;;;;;;;4.13;3.78;;;;;;;23.44;100.00;98986.06;5092169;28;20449;-52
2022/07/24 11:03:57;;;;;;;3.80;3.50;;;;;;;23.38;100.00;98899.16;5092513;28;20185;-52
2022/07/24 11:06:39;;;;;;;5.97;5.03;;;;;;;23.57;100.00;98871.25;5092530;28;20464;-53
2022/07/24 11:09:06;;;;;;;4.90;4.20;;;;;;;23.91;100.00;98761.13;5092304;28;20076;-52
2022/07/24 11:11:33;;;;;;;4.38;3.97;;;;;;;24.13;100.00;98571.34;5091902;28;20165;-51
2022/07/24 11:14:01;;;;;;;4.22;3.72;;;;;;;24.26;100.00;98463.91;5092191;28;20055;-54
2022/07/24 11:16:32;;;;;;;4.80;3.55;;;;;;;24.49;100.00;98327.94;5091954;28;20100;-51
2022/07/24 11:19:30;;;;;;;4.93;3.17;;;;;;;25.04;100.00;98288.16;5092399;28;20051;-52